X  Luk Metar data     EDVE Braunschweig-Wolfsburg Airport
Temperatur
9°C Temperatur
7°C Duggpunkt
87% Fugtighed



Vind
3 KM/T
2 MPT
1 M/S
2 KNOB



Stille
Nord
Nuværende forhold

Delvis skyet Delvis skyet
Tryk 1012.92 (hPa) - 29.91 (inHg)
Sigt 6.2 (mil) - 10 (km)
Lufthavn
Lufthavnskode EDVE

Lokation: Braunschweig-Wolfsburg Airport
Afstand: 35 (km)

Metar:
EDVE 250320Z AUTO VRB02KT 9999 // FEW097/// OVC160/// 09/07 Q1013

Tid: 25-05-2022 05:20 CEST